createdAt,value
2019-04-06T00:02:35.126Z,39.77
2019-04-06T00:05:04.889Z,38.07
2019-04-06T00:07:33.569Z,40.10
2019-04-06T00:10:02.427Z,35.03
2019-04-06T00:12:31.309Z,34.47
2019-04-06T00:15:00.015Z,37.77
2019-04-06T00:17:28.876Z,35.43
2019-04-06T00:19:57.614Z,34.03
2019-04-06T00:22:26.285Z,36.90
2019-04-06T00:24:55.051Z,33.13
2019-04-06T00:27:24.739Z,36.90
2019-04-06T00:29:53.878Z,39.47
2019-04-06T00:32:33.219Z,38.80
2019-04-06T00:35:02.128Z,33.60
2019-04-06T00:37:30.996Z,35.43
2019-04-06T00:39:59.921Z,37.33
2019-04-06T00:42:28.691Z,33.47
2019-04-06T00:44:57.385Z,34.10
2019-04-06T00:47:26.217Z,32.40
2019-04-06T00:49:54.987Z,35.77
2019-04-06T00:52:23.646Z,31.27
2019-04-06T00:54:52.322Z,39.63
2019-04-06T00:57:21.154Z,36.63
2019-04-06T00:59:50.443Z,32.07
2019-04-06T01:02:19.404Z,30.10
2019-04-06T01:04:47.925Z,28.30
2019-04-06T01:07:16.992Z,37.10
2019-04-06T01:09:46.088Z,31.93
2019-04-06T01:12:14.948Z,31.03
2019-04-06T01:14:43.480Z,29.17
2019-04-06T01:17:12.058Z,29.80
2019-04-06T01:19:40.783Z,31.33
2019-04-06T01:22:09.469Z,36.07
2019-04-06T01:24:37.978Z,33.40
2019-04-06T01:27:06.919Z,27.47
2019-04-06T01:29:35.452Z,32.17
2019-04-06T01:32:04.109Z,28.70
2019-04-06T01:34:32.704Z,32.30
2019-04-06T01:37:01.353Z,35.53
2019-04-06T01:39:29.915Z,28.50
2019-04-06T01:41:58.459Z,31.90
2019-04-06T01:44:27.038Z,34.63
2019-04-06T01:46:55.614Z,33.20
2019-04-06T01:49:24.155Z,32.83
2019-04-06T01:51:52.821Z,27.43
2019-04-06T01:54:21.362Z,31.63
2019-04-06T01:56:49.950Z,32.80
2019-04-06T01:59:18.502Z,30.40
2019-04-06T02:01:48.730Z,30.37
2019-04-06T02:04:17.571Z,34.53
2019-04-06T02:06:46.083Z,24.33
2019-04-06T02:09:14.629Z,31.10
2019-04-06T02:11:43.214Z,29.60
2019-04-06T02:14:11.861Z,29.60
2019-04-06T02:16:40.680Z,33.80
2019-04-06T02:19:09.279Z,29.60
2019-04-06T02:21:37.828Z,31.43
2019-04-06T02:24:06.529Z,27.93
2019-04-06T02:26:35.070Z,29.63
2019-04-06T02:29:03.608Z,29.97
2019-04-06T02:31:39.764Z,29.37
2019-04-06T02:34:25.232Z,31.50
2019-04-06T02:36:55.484Z,32.63
2019-04-06T02:39:25.670Z,30.73
2019-04-06T02:41:55.855Z,33.60
2019-04-06T02:44:24.439Z,30.37
2019-04-06T02:46:53.039Z,29.63
2019-04-06T02:49:21.573Z,31.20
2019-04-06T02:51:50.501Z,34.63
2019-04-06T02:54:19.128Z,32.90
2019-04-06T02:56:47.988Z,27.00
2019-04-06T02:59:17.299Z,26.93
2019-04-06T03:01:46.080Z,27.20
2019-04-06T03:04:14.634Z,32.33
2019-04-06T03:06:43.334Z,27.03
2019-04-06T03:09:12.175Z,33.53
2019-04-06T03:11:41.039Z,28.23
2019-04-06T03:14:09.719Z,25.80
2019-04-06T03:16:38.329Z,25.53
2019-04-06T03:19:06.908Z,26.83
2019-04-06T03:21:35.451Z,24.80
2019-04-06T03:24:04.099Z,29.13
2019-04-06T03:26:32.644Z,30.60
2019-04-06T03:29:01.362Z,31.53
2019-04-06T03:31:29.911Z,27.17
2019-04-06T03:33:58.629Z,28.47
2019-04-06T03:36:27.163Z,21.70
2019-04-06T03:38:55.798Z,26.97
2019-04-06T03:41:24.360Z,26.90
2019-04-06T03:43:53.853Z,25.37
2019-04-06T03:46:22.410Z,23.90
2019-04-06T03:48:51.018Z,31.33
2019-04-06T03:51:20.198Z,23.90
2019-04-06T03:53:49.133Z,24.23
2019-04-06T03:56:17.737Z,27.47
2019-04-06T03:58:46.499Z,25.23
2019-04-06T04:01:15.224Z,25.63
2019-04-06T04:03:43.786Z,25.10
2019-04-06T04:06:12.333Z,24.13
2019-04-06T04:08:40.932Z,22.90
2019-04-06T04:11:09.484Z,23.23
2019-04-06T04:13:38.027Z,26.83
2019-04-06T04:16:06.607Z,26.00
2019-04-06T04:18:35.152Z,23.80
2019-04-06T04:21:04.015Z,22.60
2019-04-06T04:23:32.559Z,23.70
2019-04-06T04:26:01.139Z,26.60
2019-04-06T04:28:29.688Z,21.00
2019-04-06T04:30:58.549Z,25.77
2019-04-06T04:33:27.304Z,20.13
2019-04-06T04:35:55.928Z,24.00
2019-04-06T04:38:24.477Z,25.30
2019-04-06T04:40:53.292Z,19.77
2019-04-06T04:43:21.925Z,27.37
2019-04-06T04:45:50.529Z,24.73
2019-04-06T04:48:19.076Z,21.27
2019-04-06T04:50:47.848Z,24.17
2019-04-06T04:53:16.516Z,24.23
2019-04-06T04:55:45.070Z,26.07
2019-04-06T04:58:13.658Z,27.47
2019-04-06T05:00:42.196Z,24.43
2019-04-06T05:03:10.775Z,24.47
2019-04-06T05:05:39.324Z,24.90
2019-04-06T05:08:08.232Z,21.67
2019-04-06T05:10:36.786Z,25.00
2019-04-06T05:13:05.406Z,26.03
2019-04-06T05:15:55.006Z,23.60
2019-04-06T05:18:23.650Z,26.73
2019-04-06T05:20:52.203Z,28.20
2019-04-06T05:23:20.956Z,19.07
2019-04-06T05:25:49.438Z,21.93
2019-04-06T05:28:18.029Z,17.73
2019-04-06T05:30:46.567Z,20.10
2019-04-06T05:33:15.406Z,18.70
2019-04-06T05:35:44.101Z,18.67
2019-04-06T05:38:12.656Z,22.97
2019-04-06T05:40:41.198Z,16.87
2019-04-06T05:43:09.754Z,17.90
2019-04-06T05:45:38.352Z,18.53
2019-04-06T05:48:06.875Z,20.93
2019-04-06T05:50:35.467Z,19.47
2019-04-06T05:53:04.190Z,19.93
2019-04-06T05:55:32.790Z,19.70
2019-04-06T05:58:04.400Z,21.40
2019-04-06T06:00:31.619Z,26.53
2019-04-06T06:03:00.430Z,23.97
2019-04-06T06:05:29.011Z,33.00
2019-04-06T06:07:57.603Z,28.40
2019-04-06T06:10:26.216Z,33.70
2019-04-06T06:12:54.799Z,28.83
2019-04-06T06:15:23.423Z,31.50
2019-04-06T06:17:51.995Z,26.27
2019-04-06T06:20:20.538Z,30.33
2019-04-06T06:22:49.127Z,26.20
2019-04-06T06:25:17.748Z,44.70
2019-04-06T06:27:46.331Z,41.40
2019-04-06T06:30:15.106Z,28.83
2019-04-06T06:32:43.783Z,29.83
2019-04-06T06:35:12.696Z,34.27
2019-04-06T06:37:41.241Z,27.37
2019-04-06T06:40:09.985Z,27.07
2019-04-06T06:42:38.846Z,29.00
2019-04-06T06:45:07.671Z,28.73
2019-04-06T06:47:36.400Z,33.50
2019-04-06T06:50:06.775Z,27.83
2019-04-06T06:52:35.316Z,28.80
2019-04-06T06:55:04.636Z,30.87
2019-04-06T06:57:33.174Z,30.73
2019-04-06T07:00:01.760Z,31.90
2019-04-06T07:02:30.307Z,24.60
2019-04-06T07:04:58.899Z,22.80
2019-04-06T07:07:27.553Z,34.27
2019-04-06T07:10:05.086Z,30.20
2019-04-06T07:12:28.088Z,25.67
2019-04-06T07:14:56.673Z,27.67
2019-04-06T07:17:25.209Z,28.23
2019-04-06T07:19:53.792Z,27.17
2019-04-06T07:22:22.335Z,29.97
2019-04-06T07:24:50.991Z,24.20
2019-04-06T07:27:19.647Z,31.43
2019-04-06T07:29:48.192Z,25.37
2019-04-06T07:32:16.988Z,27.53
2019-04-06T07:34:45.498Z,30.60
2019-04-06T07:37:14.091Z,31.83
2019-04-06T07:39:42.647Z,30.40
2019-04-06T07:42:11.239Z,27.23
2019-04-06T07:44:40.019Z,29.47
2019-04-06T07:47:08.578Z,26.27
2019-04-06T07:49:37.114Z,29.70
2019-04-06T07:52:05.927Z,28.73
2019-04-06T07:54:34.434Z,26.40
2019-04-06T07:57:03.102Z,23.73
2019-04-06T07:59:31.704Z,27.10
2019-04-06T08:02:00.253Z,28.60
2019-04-06T08:04:29.241Z,27.27
2019-04-06T08:06:57.881Z,27.27
2019-04-06T08:09:26.570Z,26.53
2019-04-06T08:11:55.122Z,27.90
2019-04-06T08:14:24.027Z,26.07
2019-04-06T08:16:52.570Z,30.30
2019-04-06T08:19:21.270Z,23.70
2019-04-06T08:21:49.914Z,28.47
2019-04-06T08:24:18.502Z,30.43
2019-04-06T08:26:47.094Z,27.70
2019-04-06T08:29:15.652Z,28.23
2019-04-06T08:31:44.239Z,27.70
2019-04-06T08:34:13.877Z,27.23
2019-04-06T08:36:42.735Z,31.20
2019-04-06T08:39:11.315Z,34.03
2019-04-06T08:41:39.906Z,26.80
2019-04-06T08:44:08.486Z,32.47
2019-04-06T08:46:37.246Z,31.27
2019-04-06T08:49:05.868Z,33.87
2019-04-06T08:51:34.483Z,30.60
2019-04-06T08:54:03.208Z,28.37
2019-04-06T08:56:32.050Z,32.10
2019-04-06T08:59:10.735Z,34.83
2019-04-06T09:01:32.231Z,28.60
2019-04-06T09:04:00.732Z,30.27
2019-04-06T09:06:29.654Z,34.60
2019-04-06T09:08:58.259Z,33.07
2019-04-06T09:11:26.811Z,32.53
2019-04-06T09:13:55.542Z,28.67
2019-04-06T09:16:24.124Z,34.20
2019-04-06T09:18:52.667Z,36.10
2019-04-06T09:21:22.616Z,28.33
2019-04-06T09:23:51.851Z,34.77
2019-04-06T09:26:20.436Z,33.93
2019-04-06T09:28:49.114Z,31.10
2019-04-06T09:31:17.678Z,32.93
2019-04-06T09:33:46.584Z,33.17
2019-04-06T09:36:15.175Z,36.20
2019-04-06T09:38:43.718Z,29.10
2019-04-06T09:41:12.859Z,33.23
2019-04-06T09:43:41.751Z,36.13
2019-04-06T09:46:11.980Z,32.40
2019-04-06T09:48:42.446Z,36.03
2019-04-06T09:51:27.966Z,35.73
2019-04-06T09:54:14.236Z,38.13
2019-04-06T09:56:44.475Z,34.27
2019-04-06T09:59:17.389Z,36.47
2019-04-06T10:01:47.599Z,35.03
2019-04-06T10:04:17.802Z,40.47
2019-04-06T10:06:56.535Z,32.30
2019-04-06T10:09:26.708Z,35.60
2019-04-06T10:12:08.648Z,33.77
2019-04-06T10:14:39.366Z,36.03
2019-04-06T10:17:25.940Z,35.97
2019-04-06T10:20:02.117Z,33.17
2019-04-06T10:22:35.147Z,35.83
2019-04-06T10:25:06.439Z,34.87
2019-04-06T10:27:39.635Z,40.87
2019-04-06T10:30:10.718Z,33.90
2019-04-06T10:32:57.047Z,37.03
2019-04-06T10:35:46.454Z,33.13
2019-04-06T10:38:19.182Z,36.77
2019-04-06T10:41:05.878Z,39.33
2019-04-06T10:43:48.206Z,37.57
2019-04-06T10:46:21.395Z,36.07
2019-04-06T10:49:03.411Z,35.50
2019-04-06T10:51:50.147Z,37.80
2019-04-06T10:54:29.370Z,35.00
2019-04-06T10:57:16.039Z,36.73
2019-04-06T11:00:03.336Z,34.43
2019-04-06T11:02:36.455Z,36.83
2019-04-06T11:05:13.887Z,32.67
2019-04-06T11:07:47.131Z,32.93
2019-04-06T11:10:20.377Z,35.50
2019-04-06T11:13:08.514Z,33.47
2019-04-06T11:15:38.714Z,34.63
2019-04-06T11:18:25.215Z,37.63
2019-04-06T11:20:55.433Z,34.70
2019-04-06T11:23:25.632Z,34.30
2019-04-06T11:25:58.498Z,34.73
2019-04-06T11:28:28.716Z,31.37
2019-04-06T11:31:08.798Z,28.43
2019-04-06T11:33:45.221Z,36.53
2019-04-06T11:36:34.147Z,28.90
2019-04-06T11:39:21.129Z,24.80
2019-04-06T11:42:03.405Z,30.87
2019-04-06T11:44:36.447Z,31.30
2019-04-06T11:47:19.338Z,28.27
2019-04-06T11:49:55.546Z,24.70
2019-04-06T11:52:40.646Z,27.97
2019-04-06T11:55:10.908Z,29.00
2019-04-06T11:57:41.125Z,31.17
2019-04-06T12:00:28.183Z,25.90
2019-04-06T12:03:14.878Z,29.10
2019-04-06T12:05:45.135Z,27.77
2019-04-06T12:08:15.352Z,29.60
2019-04-06T12:11:00.794Z,22.10
2019-04-06T12:13:34.254Z,26.57
2019-04-06T12:16:04.691Z,27.53
2019-04-06T12:18:37.663Z,29.60
2019-04-06T12:21:24.486Z,24.70
2019-04-06T12:24:11.379Z,27.53
2019-04-06T12:26:44.503Z,27.63
2019-04-06T12:29:20.828Z,26.67
2019-04-06T12:31:57.014Z,32.57
2019-04-06T12:34:30.021Z,19.33
2019-04-06T12:37:00.466Z,22.50
2019-04-06T12:39:30.683Z,18.77
2019-04-06T12:42:00.873Z,21.00
2019-04-06T12:44:48.978Z,23.90
2019-04-06T12:47:36.033Z,21.70
2019-04-06T12:50:11.308Z,20.60
2019-04-06T12:52:59.707Z,26.33
2019-04-06T12:55:38.441Z,19.20
2019-04-06T12:58:11.607Z,19.90
2019-04-06T13:00:51.108Z,18.63
2019-04-06T13:03:16.738Z,20.67
2019-04-06T13:05:47.157Z,17.83
2019-04-06T13:08:26.422Z,20.27
2019-04-06T13:11:08.872Z,19.43
2019-04-06T13:13:48.310Z,21.77
2019-04-06T13:16:26.081Z,13.70
2019-04-06T13:19:12.433Z,21.60
2019-04-06T13:21:59.067Z,19.83
2019-04-06T13:24:29.250Z,12.57
2019-04-06T13:27:15.422Z,11.50
2019-04-06T13:29:48.590Z,13.50
2019-04-06T13:32:21.494Z,9.67
2019-04-06T13:35:09.721Z,12.63
2019-04-06T13:37:42.403Z,9.73
2019-04-06T13:40:12.727Z,13.57
2019-04-06T13:42:51.891Z,11.57
2019-04-06T13:45:24.796Z,11.30
2019-04-06T13:48:03.982Z,11.13
2019-04-06T13:50:43.355Z,10.07
2019-04-06T13:53:20.157Z,11.27
2019-04-06T13:55:53.002Z,9.63
2019-04-06T13:58:39.303Z,9.80
2019-04-06T14:01:15.957Z,11.77
2019-04-06T14:03:50.188Z,10.70
2019-04-06T14:06:22.998Z,9.87
2019-04-06T14:08:53.365Z,14.33
2019-04-06T14:11:32.930Z,12.73
2019-04-06T14:14:19.907Z,12.53
2019-04-06T14:17:06.552Z,12.23
2019-04-06T14:19:36.695Z,10.83
2019-04-06T14:22:19.873Z,9.50
2019-04-06T14:24:53.327Z,10.10
2019-04-06T14:27:26.555Z,14.40
2019-04-06T14:30:05.807Z,12.10
2019-04-06T14:32:36.018Z,11.00
2019-04-06T14:35:08.546Z,11.10
2019-04-06T14:37:55.279Z,12.17
2019-04-06T14:40:31.598Z,12.10
2019-04-06T14:43:18.247Z,8.83
2019-04-06T14:45:54.492Z,13.83
2019-04-06T14:48:41.580Z,17.53
2019-04-06T14:51:14.689Z,8.80
2019-04-06T14:53:48.085Z,8.87
2019-04-06T14:56:18.193Z,9.67
2019-04-06T14:58:54.716Z,10.97
2019-04-06T15:01:43.659Z,8.57
2019-04-06T15:04:21.499Z,10.70
2019-04-06T15:07:11.137Z,9.83
2019-04-06T15:09:42.061Z,9.90
2019-04-06T15:12:14.845Z,13.43
2019-04-06T15:14:45.103Z,45.27
2019-04-06T15:17:23.930Z,26.80
2019-04-06T15:20:00.743Z,12.43
2019-04-06T15:22:46.281Z,11.90
2019-04-06T15:25:18.844Z,15.33
2019-04-06T15:27:49.022Z,9.80
2019-04-06T15:30:19.479Z,10.70
2019-04-06T15:32:58.844Z,10.47
2019-04-06T15:35:32.019Z,12.40
2019-04-06T15:38:18.406Z,13.20
2019-04-06T15:40:48.627Z,13.60
2019-04-06T15:43:37.568Z,14.63
2019-04-06T15:46:07.859Z,17.10
2019-04-06T15:48:53.388Z,16.97
2019-04-06T15:51:32.796Z,20.67
2019-04-06T15:54:03.326Z,17.27
2019-04-06T15:56:50.035Z,17.27
2019-04-06T15:59:35.335Z,21.43
2019-04-06T16:02:05.756Z,15.60
2019-04-06T16:04:42.127Z,25.93
2019-04-06T16:07:12.760Z,54.57
2019-04-06T16:09:57.716Z,17.77
2019-04-06T16:12:44.426Z,14.23
2019-04-06T16:15:23.879Z,15.20
2019-04-06T16:18:10.878Z,17.70
2019-04-06T16:20:44.185Z,18.77
2019-04-06T16:23:23.278Z,15.80
2019-04-06T16:26:02.720Z,15.83
2019-04-06T16:28:42.014Z,16.07
2019-04-06T16:31:12.513Z,14.17
2019-04-06T16:33:59.099Z,15.50
2019-04-06T16:36:41.615Z,16.77
2019-04-06T16:39:20.880Z,19.00
2019-04-06T16:42:07.838Z,19.83
2019-04-06T16:44:41.026Z,19.80
2019-04-06T16:47:17.067Z,18.30
2019-04-06T16:50:02.668Z,17.40
2019-04-06T16:52:50.959Z,17.00
2019-04-06T16:55:30.175Z,14.27
2019-04-06T16:58:06.439Z,18.57
2019-04-06T17:00:48.783Z,17.60
2019-04-06T17:03:24.683Z,17.43
2019-04-06T17:06:04.235Z,19.40
2019-04-06T17:08:50.919Z,17.63
2019-04-06T17:11:24.496Z,19.30
2019-04-06T17:14:03.471Z,18.90
2019-04-06T17:16:49.939Z,16.57
2019-04-06T17:19:38.183Z,18.70
2019-04-06T17:22:23.549Z,16.57
2019-04-06T17:24:56.901Z,19.60
2019-04-06T17:27:30.212Z,16.47
2019-04-06T17:30:12.300Z,18.50
2019-04-06T17:32:45.295Z,19.47
2019-04-06T17:35:27.552Z,17.33
2019-04-06T17:37:57.738Z,16.27
2019-04-06T17:40:27.948Z,21.63
2019-04-06T17:42:58.202Z,18.20
2019-04-06T17:45:37.373Z,18.53
2019-04-06T17:48:07.595Z,16.20
2019-04-06T17:50:37.785Z,21.70
2019-04-06T17:56:10.567Z,18.60
2019-04-06T17:58:57.489Z,19.43
2019-04-06T18:01:44.304Z,14.60
2019-04-06T18:04:31.200Z,17.13
2019-04-06T18:07:01.439Z,15.00
2019-04-06T18:09:31.718Z,16.03
2019-04-06T18:12:18.526Z,19.23
2019-04-06T18:14:47.202Z,25.33
2019-04-06T18:17:15.712Z,18.87
2019-04-06T18:19:44.764Z,21.20
2019-04-06T18:22:13.535Z,17.47
2019-04-06T18:24:43.413Z,16.70
2019-04-06T18:27:11.959Z,15.77
2019-04-06T18:29:41.022Z,15.13
2019-04-06T18:32:17.476Z,18.03
2019-04-06T18:34:46.133Z,15.47
2019-04-06T18:37:22.381Z,16.63
2019-04-06T18:39:52.617Z,13.00
2019-04-06T18:42:21.144Z,18.30
2019-04-06T18:44:49.873Z,14.20
2019-04-06T18:47:18.671Z,13.90
2019-04-06T18:49:47.246Z,14.93
2019-04-06T18:52:15.790Z,17.10
2019-04-06T18:54:44.369Z,16.07
2019-04-06T18:57:12.843Z,20.47
2019-04-06T18:59:41.777Z,19.30
2019-04-06T19:02:10.314Z,21.57
2019-04-06T19:04:38.858Z,16.50
2019-04-06T19:07:07.621Z,20.13
2019-04-06T19:09:36.158Z,21.00
2019-04-06T19:12:05.342Z,22.43
2019-04-06T19:14:33.837Z,19.50
2019-04-06T19:17:02.900Z,18.60
2019-04-06T19:19:31.443Z,21.73
2019-04-06T19:22:01.349Z,21.13
2019-04-06T19:24:30.294Z,19.20
2019-04-06T19:26:59.006Z,18.57
2019-04-06T19:29:27.555Z,19.77
2019-04-06T19:31:57.534Z,20.27
2019-04-06T19:34:26.316Z,22.17
2019-04-06T19:36:55.447Z,25.67
2019-04-06T19:39:24.194Z,22.60
2019-04-06T19:41:52.803Z,19.10
2019-04-06T19:44:21.663Z,20.80
2019-04-06T19:46:50.434Z,21.50
2019-04-06T19:49:19.558Z,23.10
2019-04-06T19:51:48.254Z,26.40
2019-04-06T19:54:16.798Z,22.20
2019-04-06T19:56:45.367Z,20.20
2019-04-06T19:59:13.922Z,22.43
2019-04-06T20:01:42.554Z,18.70
2019-04-06T20:04:11.360Z,25.27
2019-04-06T20:06:39.975Z,22.43
2019-04-06T20:09:08.657Z,19.30
2019-04-06T20:11:37.486Z,22.27
2019-04-06T20:14:06.243Z,23.40
2019-04-06T20:16:35.218Z,25.07
2019-04-06T20:19:04.424Z,21.30
2019-04-06T20:21:33.446Z,22.03
2019-04-06T20:24:01.928Z,20.50
2019-04-06T20:26:32.248Z,20.77
2019-04-06T20:29:00.690Z,20.30
2019-04-06T20:31:29.262Z,21.50
2019-04-06T20:33:57.802Z,20.77
2019-04-06T20:36:26.290Z,23.90
2019-04-06T20:38:54.926Z,21.00
2019-04-06T20:41:23.485Z,22.47
2019-04-06T20:43:52.118Z,22.40
2019-04-06T20:46:20.690Z,25.90
2019-04-06T20:48:49.259Z,21.43
2019-04-06T20:51:17.994Z,26.73
2019-04-06T20:53:47.035Z,23.27
2019-04-06T20:56:16.003Z,24.77
2019-04-06T20:58:44.661Z,23.53
2019-04-06T21:01:13.135Z,22.83
2019-04-06T21:03:41.702Z,23.73
2019-04-06T21:06:10.174Z,22.30
2019-04-06T21:08:39.057Z,26.80
2019-04-06T21:11:08.266Z,26.53
2019-04-06T21:13:36.942Z,30.00
2019-04-06T21:16:05.763Z,27.53
2019-04-06T21:18:34.430Z,32.50
2019-04-06T21:21:03.021Z,38.63
2019-04-06T21:23:32.813Z,34.43
2019-04-06T21:26:01.781Z,32.37
2019-04-06T21:28:30.968Z,26.07
2019-04-06T21:30:59.716Z,25.90
2019-04-06T21:33:28.616Z,36.43
2019-04-06T21:35:57.534Z,36.23
2019-04-06T21:38:26.199Z,38.40
2019-04-06T21:40:55.282Z,27.50
2019-04-06T21:43:23.862Z,44.33
2019-04-06T21:45:52.390Z,46.00
2019-04-06T21:48:21.302Z,34.80
2019-04-06T21:50:50.134Z,23.70
2019-04-06T21:53:18.683Z,23.57
2019-04-06T21:55:47.222Z,20.77
2019-04-06T21:58:15.791Z,19.67
2019-04-06T22:00:49.845Z,21.90
2019-04-06T22:03:19.039Z,19.67
2019-04-06T22:05:47.929Z,17.73
2019-04-06T22:08:16.544Z,20.17
2019-04-06T22:10:45.807Z,26.40
2019-04-06T22:13:14.834Z,20.63
2019-04-06T22:15:43.514Z,20.60
2019-04-06T22:18:12.567Z,18.37
2019-04-06T22:20:41.237Z,21.37
2019-04-06T22:23:09.774Z,21.77
2019-04-06T22:25:38.311Z,21.57
2019-04-06T22:28:06.819Z,18.20
2019-04-06T22:30:35.310Z,19.67
2019-04-06T22:33:03.922Z,24.03
2019-04-06T22:35:32.498Z,23.13
2019-04-06T22:38:01.383Z,27.23
2019-04-06T22:40:30.131Z,19.37
2019-04-06T22:42:58.683Z,22.03
2019-04-06T22:45:28.898Z,22.70
2019-04-06T22:47:57.548Z,20.97
2019-04-06T22:50:26.871Z,20.70
2019-04-06T22:52:56.052Z,20.03
2019-04-06T22:55:24.749Z,21.63
2019-04-06T22:57:53.334Z,24.80
2019-04-06T23:00:32.511Z,19.77
2019-04-06T23:03:09.145Z,23.17
2019-04-06T23:05:42.594Z,22.63
2019-04-06T23:08:11.133Z,24.97
2019-04-06T23:10:39.719Z,20.37
2019-04-06T23:13:08.237Z,22.23
2019-04-06T23:15:37.162Z,21.47
2019-04-06T23:18:05.877Z,21.43
2019-04-06T23:20:34.619Z,26.03
2019-04-06T23:23:03.801Z,23.17
2019-04-06T23:25:32.389Z,21.57
2019-04-06T23:28:01.006Z,24.20
2019-04-06T23:30:29.545Z,26.10
2019-04-06T23:32:58.247Z,23.33
2019-04-06T23:35:26.863Z,23.37
2019-04-06T23:37:55.433Z,22.30
2019-04-06T23:40:24.278Z,27.13
2019-04-06T23:42:53.716Z,23.03
2019-04-06T23:45:23.023Z,24.23
2019-04-06T23:47:52.074Z,26.13
2019-04-06T23:50:20.611Z,24.70
2019-04-06T23:52:49.097Z,26.37
2019-04-06T23:55:17.639Z,23.17
2019-04-06T23:57:46.567Z,24.47
